Terminal Aerodrome Forecast
Issued by NWS

Home | Current Version | Previous Version | Text Only | Print | Product List | Glossary On
Versions: 1 2 3 4 5 6 7 8 9 10 11 12 13
000
FTUS45 KGJT 241740
TAFDRO
TAF
KDRO 241740Z 2418/2518 VRB04KT P6SM SCT120
     FM242000 26010KT P6SM SCT120
     FM242300 30010G18KT P6SM SCT120
     FM250100 36008KT P6SM SCT250
     FM250700 VRB03KT P6SM SCT250=

USA.gov is the U.S. government's official web portal to all federal, state and local government web resources and services.